Flight Track Log - Related Links

Times and Time Zones

All times are in EDT time to prevent confusion due to time zone crossing. See the N7711Y flight status page for this flight to view local times or setup timezone preferences in your user account.

Time Position Orientation Groundspeed Altitude Reporting Facility
EDT Latitude Longitude Course Direction KTS MPH feet Rate Location/Type
Fri 07:08:42 PM 28.1500 -82.3167 17° North 125 144 7,600  Level Tampa TRACON
Fri 07:09:00 PM 28.1945 -82.2821 17° North  Level Estimated
Fri 07:09:42 PM 28.1667 -82.2833 60° Northeast 148 170 8,200  Level Tampa TRACON
Fri 07:10:00 PM 28.2203 -82.2730 17° North  Level Estimated
Fri 07:10:42 PM 28.1833 -82.2333 69° East 175 201 8,000  Level Tampa TRACON
Fri 07:11:00 PM 28.2460 -82.2640 17° North  Level Estimated
Fri 07:11:42 PM 28.2000 -82.1833 69° East 179 206 8,000  Level Tampa TRACON
Fri 07:12:00 PM 28.2718 -82.2550 17° North  Level Estimated
Fri 07:12:42 PM 28.2500 -82.1833 360° North 179 206 8,000  Level Tampa TRACON
Fri 07:13:00 PM 28.2976 -82.2459 17° North  Level Estimated
Fri 07:13:36 PM 28.3000 -82.1833 360° North 179 206 8,000  Level Tampa TRACON
Fri 07:14:00 PM 28.3234 -82.2368 17° North  Level Estimated
Fri 07:14:36 PM 28.3500 -82.2000 344° North 178 205 8,000  Level Tampa TRACON
Fri 07:15:36 PM 28.4000 -82.2000 360° North 174 200 8,000  Level Tampa TRACON
Fri 07:16:36 PM 28.4333 -82.2000 360° North 172 198 8,000  Level Tampa TRACON
Fri 07:18:23 PM 28.5239 -82.2217 348° North 171 197 8,000  Level Jacksonville Center
Fri 07:20:00 PM 28.5679 -82.2828 309° West  Level FlightAware Approximate
Fri 07:27:00 PM 28.7810 -82.4690 30° Northeast  Level FlightAware Approximate
Fri 07:28:00 PM 28.8183 -82.4447 30° Northeast  Level FlightAware Approximate
Fri 07:29:00 PM 28.8553 -82.4205 30° Northeast  Level FlightAware Approximate
Fri 07:30:00 PM 28.8923 -82.3964 30° Northeast  Level FlightAware Approximate
Fri 07:31:00 PM 28.9293 -82.3722 30° Northeast  Level FlightAware Approximate
Fri 07:32:00 PM 28.9663 -82.3480 30° Northeast  Level FlightAware Approximate
Fri 07:33:00 PM 29.0033 -82.3238 30° Northeast  Level FlightAware Approximate
Fri 07:34:00 PM 29.0442 -82.2993 16° North  Level Estimated
Fri 07:35:00 PM 29.0849 -82.2745 28° Northeast  Level FlightAware Approximate
Fri 07:36:00 PM 29.1257 -82.2497 28° Northeast  Level FlightAware Approximate
Fri 07:37:00 PM 29.1664 -82.2249 28° Northeast  Level FlightAware Approximate
Fri 07:38:00 PM 29.2071 -82.2000 28° Northeast  Level FlightAware Approximate
Fri 07:39:00 PM 29.2449 -82.1769 28° Northeast  Level FlightAware Approximate
Fri 07:40:00 PM 29.2828 -82.1538 28° Northeast  Level FlightAware Approximate
Fri 07:41:00 PM 29.3206 -82.1306 28° Northeast  Level FlightAware Approximate
Fri 07:42:00 PM 29.3584 -82.1074 28° Northeast  Level FlightAware Approximate
Fri 07:43:00 PM 29.3962 -82.0843 28° Northeast  Level FlightAware Approximate
Fri 07:44:00 PM 29.4340 -82.0611 28° Northeast  Level FlightAware Approximate
Fri 07:45:00 PM 29.4733 -82.0369 28° Northeast  Level FlightAware Approximate
Fri 07:46:00 PM 29.5125 -82.0128 28° Northeast  Level FlightAware Approximate
Fri 07:47:00 PM 29.5520 -81.9891 29° Northeast  Level Estimated
Fri 07:48:00 PM 29.5909 -81.9643 29° Northeast  Level FlightAware Approximate
Fri 07:49:00 PM 29.6299 -81.9395 29° Northeast  Level FlightAware Approximate
Fri 07:50:00 PM 29.6688 -81.9147 29° Northeast  Level FlightAware Approximate
Fri 07:51:00 PM 29.7077 -81.8898 29° Northeast  Level FlightAware Approximate
Fri 07:52:00 PM 29.7466 -81.8649 29° Northeast  Level FlightAware Approximate
Fri 07:53:00 PM 29.7856 -81.8400 29° Northeast  Level FlightAware Approximate
Fri 07:54:00 PM 29.8245 -81.8151 29° Northeast  Level FlightAware Approximate
Fri 07:55:00 PM 29.8634 -81.7902 29° Northeast  Level FlightAware Approximate
Fri 07:56:00 PM 29.9032 -81.7671 29° Northeast  Level Estimated
Fri 07:57:00 PM 29.9419 -81.7419 29° Northeast  Level FlightAware Approximate
Fri 07:58:00 PM 29.9807 -81.7167 29° Northeast  Level FlightAware Approximate
Fri 07:59:00 PM 30.0196 -81.6915 29° Northeast  Level FlightAware Approximate
Fri 08:00:00 PM 30.0583 -81.6663 29° Northeast  Level FlightAware Approximate
Fri 08:01:00 PM 30.0986 -81.6443 25° Northeast  Level Estimated
Fri 08:02:00 PM 30.1387 -81.6219 26° Northeast  Level FlightAware Approximate
Fri 08:03:00 PM 30.1787 -81.5994 26° Northeast  Level FlightAware Approximate
Fri 08:04:00 PM 30.2188 -81.5769 26° Northeast  Level FlightAware Approximate
Fri 08:05:00 PM 30.2592 -81.5554 33° Northeast  Level Estimated
Fri 08:06:00 PM 30.2966 -81.5275 33° Northeast  Level FlightAware Approximate
Fri 08:07:00 PM 30.3333 -81.5000 North  Level FlightAware Approximate
Fri 08:08:00 PM 30.3363 -81.5144 North  Level Estimated
Fri 08:09:00 PM 30.3363 -81.5144 North  Level Estimated
Fri 08:10:00 PM 30.3363 -81.5144 North  Level Estimated
Fri 08:11:00 PM 30.3363 -81.5144 North  Level Estimated
Fri 08:12:00 PM 30.3363 -81.5144 North  Level Estimated
Fri 08:13:00 PM 30.3363 -81.5144 North  Level Estimated
Fri 08:14:00 PM 30.3363 -81.5144 North  Level Estimated
Fri 08:15:00 PM 30.3363 -81.5144 North  Level Estimated
Fri 08:16:00 PM 30.3363 -81.5144 North  Level Estimated
Fri 08:17:00 PM 30.3363 -81.5144 North  Level Estimated
Fri 08:18:00 PM 30.3363 -81.5144 North  Level Estimated
Fri 08:19:00 PM 30.3363 -81.5144 North  Level Estimated

Login

Don't have an account? Register now (free) for customized features, flight alerts, and more!